Time;durP1;ratioP1;P1;durP2;ratioP2;P2;SDS_P1;SDS_P2;PMS_P1;PMS_P2;Temp;Humidity;BMP_temperature;BMP_pressure;BME280_temperature;BME280_humidity;BME280_pressure;Samples;Min_cycle;Max_cycle;Signal;HPM_P1;HPM_P2
2024/01/21 00:00:45;;;;;;;9.13;6.47;;;;;;;;;;5075599;28;20186;-60
2024/01/21 00:03:11;;;;;;;8.88;6.32;;;;;;;;;;5075365;28;20189;-60
2024/01/21 00:05:38;;;;;;;8.60;6.13;;;;;;;;;;5075109;28;20193;-60
2024/01/21 00:08:06;;;;;;;7.25;5.65;;;;;;;;;;5075097;28;20643;-60
2024/01/21 00:10:34;;;;;;;14.15;6.32;;;;;;;;;;5075235;28;20189;-60
2024/01/21 00:13:01;;;;;;;10.88;6.78;;;;;;;;;;5074415;28;20569;-60
2024/01/21 00:15:28;;;;;;;9.32;6.20;;;;;;;;;;5075272;28;20190;-60
2024/01/21 00:17:55;;;;;;;9.02;6.75;;;;;;;;;;5075190;28;20285;-60
2024/01/21 00:20:21;;;;;;;8.23;7.10;;;;;;;;;;5074828;28;20213;-60
2024/01/21 00:22:48;;;;;;;10.55;6.00;;;;;;;;;;5075203;28;20189;-60
2024/01/21 00:25:15;;;;;;;9.18;6.25;;;;;;;;;;5075174;28;20272;-60
2024/01/21 00:27:43;;;;;;;10.52;7.07;;;;;;;;;;5075050;28;20272;-60
2024/01/21 00:30:11;;;;;;;8.85;6.88;;;;;;;;;;5075175;28;20201;-60
2024/01/21 00:32:38;;;;;;;10.98;6.78;;;;;;;;;;5074677;28;20216;-60
2024/01/21 00:35:05;;;;;;;10.30;6.55;;;;;;;;;;5074682;28;20189;-60
2024/01/21 00:37:32;;;;;;;7.80;5.90;;;;;;;;;;5074981;28;20678;-60
2024/01/21 00:39:59;;;;;;;6.38;5.75;;;;;;;;;;5074650;28;20193;-60
2024/01/21 00:42:26;;;;;;;7.57;5.80;;;;;;;;;;5074767;28;20272;-60
2024/01/21 00:44:54;;;;;;;7.25;5.82;;;;;;;;;;5074577;28;20281;-60
2024/01/21 00:47:21;;;;;;;7.00;5.97;;;;;;;;;;5074556;28;20217;-60
2024/01/21 00:49:48;;;;;;;9.27;5.78;;;;;;;;;;5074668;28;20193;-60
2024/01/21 00:52:15;;;;;;;10.43;6.68;;;;;;;;;;5074471;28;20217;-60
2024/01/21 00:54:42;;;;;;;9.68;6.32;;;;;;;;;;5074504;28;20186;-60
2024/01/21 00:57:09;;;;;;;7.47;6.53;;;;;;;;;;5074437;28;20242;-60
2024/01/21 00:59:36;;;;;;;9.27;6.80;;;;;;;;;;5074299;28;20192;-60
2024/01/21 01:02:05;;;;;;;13.50;6.90;;;;;;;;;;5074285;28;20281;-60
2024/01/21 01:04:32;;;;;;;7.35;5.88;;;;;;;;;;5074386;28;20284;-60
2024/01/21 01:06:59;;;;;;;8.70;6.35;;;;;;;;;;5074214;28;20534;-60
2024/01/21 01:09:26;;;;;;;8.65;5.45;;;;;;;;;;5074209;28;20196;-60
2024/01/21 01:11:53;;;;;;;9.77;6.30;;;;;;;;;;5074100;28;20189;-60
2024/01/21 01:14:20;;;;;;;12.25;7.22;;;;;;;;;;5074564;28;20567;-60
2024/01/21 01:16:47;;;;;;;12.75;7.07;;;;;;;;;;5073897;28;20194;-60
2024/01/21 01:19:15;;;;;;;12.98;6.00;;;;;;;;;;5074096;28;20193;-60
2024/01/21 01:21:42;;;;;;;12.40;6.70;;;;;;;;;;5073967;28;20307;-60
2024/01/21 01:24:10;;;;;;;9.30;5.75;;;;;;;;;;5073087;28;20534;-60
2024/01/21 01:26:36;;;;;;;7.80;6.18;;;;;;;;;;5073761;28;20648;-60
2024/01/21 01:29:03;;;;;;;7.90;5.80;;;;;;;;;;5073715;28;20193;-60
2024/01/21 01:31:30;;;;;;;7.55;5.88;;;;;;;;;;5073619;28;20706;-60
2024/01/21 01:33:57;;;;;;;10.00;5.15;;;;;;;;;;5073746;28;20221;-60
2024/01/21 01:36:27;;;;;;;9.02;6.53;;;;;;;;;;5073699;28;20279;-60
2024/01/21 01:38:54;;;;;;;8.68;6.10;;;;;;;;;;5073523;28;20669;-60
2024/01/21 01:41:21;;;;;;;8.27;6.03;;;;;;;;;;5073602;28;20276;-60
2024/01/21 01:43:48;;;;;;;8.05;6.13;;;;;;;;;;5073608;28;20292;-60
2024/01/21 01:46:16;;;;;;;8.80;6.40;;;;;;;;;;5073579;28;20192;-60
2024/01/21 01:48:43;;;;;;;8.65;6.40;;;;;;;;;;5073546;28;20276;-60
2024/01/21 01:51:10;;;;;;;13.10;7.50;;;;;;;;;;5073456;28;20195;-60
2024/01/21 01:53:38;;;;;;;8.40;5.88;;;;;;;;;;5073287;28;20221;-60
2024/01/21 01:56:06;;;;;;;8.90;6.40;;;;;;;;;;5073184;28;20534;-60
2024/01/21 01:58:33;;;;;;;8.60;5.68;;;;;;;;;;5073486;28;20193;-60
2024/01/21 02:01:00;;;;;;;7.63;5.60;;;;;;;;;;5073387;28;20189;-60
2024/01/21 02:03:28;;;;;;;6.82;5.20;;;;;;;;;;5073247;28;20396;-60
2024/01/21 02:05:54;;;;;;;9.02;6.50;;;;;;;;;;5073266;28;20224;-60
2024/01/21 02:08:21;;;;;;;9.38;6.55;;;;;;;;;;5073165;28;20211;-60
2024/01/21 02:10:50;;;;;;;8.85;6.15;;;;;;;;;;5073046;28;20390;-60
2024/01/21 02:13:17;;;;;;;6.68;5.60;;;;;;;;;;5073106;28;20604;-60
2024/01/21 02:15:44;;;;;;;10.98;6.07;;;;;;;;;;5073188;28;20186;-60
2024/01/21 02:18:11;;;;;;;6.70;5.40;;;;;;;;;;5073191;28;20736;-60
2024/01/21 02:20:38;;;;;;;9.27;6.88;;;;;;;;;;5072816;28;20227;-60
2024/01/21 02:23:10;;;;;;;7.60;6.03;;;;;;;;;;5073024;28;20189;-60
2024/01/21 02:25:37;;;;;;;9.25;6.15;;;;;;;;;;5073150;28;20212;-60
2024/01/21 02:28:04;;;;;;;8.93;6.00;;;;;;;;;;5073050;28;20280;-60
2024/01/21 02:30:30;;;;;;;11.07;7.25;;;;;;;;;;5073066;28;20276;-60
2024/01/21 02:32:57;;;;;;;8.30;6.60;;;;;;;;;;5072874;28;20231;-60
2024/01/21 02:35:24;;;;;;;7.45;6.32;;;;;;;;;;5075625;28;20188;-60
2024/01/21 02:37:51;;;;;;;11.00;7.70;;;;;;;;;;5079392;28;20277;-60
2024/01/21 02:40:19;;;;;;;9.80;6.40;;;;;;;;;;5079649;28;20283;-60
2024/01/21 02:42:46;;;;;;;7.32;6.32;;;;;;;;;;5079582;28;20196;-60
2024/01/21 02:45:13;;;;;;;9.55;6.60;;;;;;;;;;5079649;28;20718;-60
2024/01/21 02:47:40;;;;;;;10.55;7.60;;;;;;;;;;5079359;28;20640;-60
2024/01/21 02:50:08;;;;;;;9.75;6.85;;;;;;;;;;5079605;28;20284;-60
2024/01/21 02:52:35;;;;;;;8.73;5.93;;;;;;;;;;5079189;28;20219;-60
2024/01/21 02:55:02;;;;;;;10.98;6.55;;;;;;;;;;5079555;28;20239;-60
2024/01/21 02:57:30;;;;;;;8.48;6.95;;;;;;;;;;5079222;28;20648;-60
2024/01/21 02:59:57;;;;;;;8.45;7.03;;;;;;;;;;5079412;28;20429;-60
2024/01/21 03:02:24;;;;;;;9.00;6.43;;;;;;;;;;5079533;28;20185;-60
2024/01/21 03:04:51;;;;;;;8.10;6.47;;;;;;;;;;5079194;28;20268;-60
2024/01/21 03:07:18;;;;;;;7.85;6.07;;;;;;;;;;5079147;28;20189;-60
2024/01/21 03:09:45;;;;;;;6.82;6.13;;;;;;;;;;5079342;28;20189;-60
2024/01/21 03:12:12;;;;;;;8.32;6.30;;;;;;;;;;5079188;28;20552;-60
2024/01/21 03:14:40;;;;;;;10.13;6.72;;;;;;;;;;5079251;28;20618;-60
2024/01/21 03:17:07;;;;;;;8.55;6.38;;;;;;;;;;5079187;28;20195;-60
2024/01/21 03:19:34;;;;;;;11.10;6.75;;;;;;;;;;5078811;28;20185;-60
2024/01/21 03:22:01;;;;;;;7.60;6.10;;;;;;;;;;5079265;28;20275;-60
2024/01/21 03:24:28;;;;;;;8.93;6.22;;;;;;;;;;5079131;28;20634;-60
2024/01/21 03:26:55;;;;;;;7.35;6.30;;;;;;;;;;5079171;28;20195;-60
2024/01/21 03:29:22;;;;;;;9.65;6.85;;;;;;;;;;5079132;28;20277;-60
2024/01/21 03:31:50;;;;;;;8.23;5.80;;;;;;;;;;5079060;28;20300;-60
2024/01/21 03:34:17;;;;;;;9.00;6.70;;;;;;;;;;5078836;28;20213;-60
2024/01/21 03:36:44;;;;;;;7.60;6.00;;;;;;;;;;5079131;28;20562;-60
2024/01/21 03:39:11;;;;;;;7.72;5.88;;;;;;;;;;5079120;28;20189;-60
2024/01/21 03:41:38;;;;;;;9.65;6.18;;;;;;;;;;5078969;28;20196;-60
2024/01/21 03:44:05;;;;;;;11.07;6.75;;;;;;;;;;5079022;28;20288;-60
2024/01/21 03:46:32;;;;;;;9.70;6.80;;;;;;;;;;5077067;28;20193;-60
2024/01/21 03:49:00;;;;;;;10.18;7.70;;;;;;;;;;5075746;28;20185;-60
2024/01/21 03:51:27;;;;;;;8.38;6.53;;;;;;;;;;5075812;28;20204;-60
2024/01/21 03:53:54;;;;;;;8.57;6.97;;;;;;;;;;5075685;28;20764;-60
2024/01/21 03:56:21;;;;;;;7.35;6.63;;;;;;;;;;5075783;28;20276;-60
2024/01/21 03:58:48;;;;;;;8.75;6.68;;;;;;;;;;5075542;28;20309;-60
2024/01/21 04:01:15;;;;;;;8.73;6.90;;;;;;;;;;5075393;28;20196;-60
2024/01/21 04:03:42;;;;;;;8.63;6.38;;;;;;;;;;5075839;28;20191;-60
2024/01/21 04:06:10;;;;;;;12.45;6.80;;;;;;;;;;5075471;28;20272;-60
2024/01/21 04:08:37;;;;;;;8.77;6.90;;;;;;;;;;5075407;28;20287;-60
2024/01/21 04:11:04;;;;;;;10.10;6.78;;;;;;;;;;5075337;28;20288;-60
2024/01/21 04:13:31;;;;;;;9.40;6.72;;;;;;;;;;5075097;28;20300;-60
2024/01/21 04:15:59;;;;;;;11.77;7.43;;;;;;;;;;5075152;28;20716;-60
2024/01/21 04:18:26;;;;;;;8.40;5.80;;;;;;;;;;5075284;28;20277;-60
2024/01/21 04:20:52;;;;;;;7.22;6.45;;;;;;;;;;5075024;28;20584;-60
2024/01/21 04:23:21;;;;;;;8.35;7.07;;;;;;;;;;5075094;28;20195;-60
2024/01/21 04:25:49;;;;;;;9.95;7.22;;;;;;;;;;5075073;28;20200;-60
2024/01/21 04:28:16;;;;;;;7.60;5.97;;;;;;;;;;5074981;28;20193;-60
2024/01/21 04:30:43;;;;;;;7.38;5.53;;;;;;;;;;5075225;28;20193;-60
2024/01/21 04:33:10;;;;;;;9.50;6.53;;;;;;;;;;5075035;28;20217;-60
2024/01/21 04:35:37;;;;;;;6.88;5.32;;;;;;;;;;5074939;28;20285;-60
2024/01/21 04:38:04;;;;;;;6.78;6.03;;;;;;;;;;5074838;28;20196;-60
2024/01/21 04:40:33;;;;;;;8.85;6.93;;;;;;;;;;5074743;28;20196;-60
2024/01/21 04:43:00;;;;;;;6.20;5.60;;;;;;;;;;5074630;28;20201;-60
2024/01/21 04:45:26;;;;;;;8.65;6.38;;;;;;;;;;5074595;28;20185;-60
2024/01/21 04:47:53;;;;;;;7.72;5.90;;;;;;;;;;5074752;28;20247;-60
2024/01/21 04:50:20;;;;;;;9.95;6.60;;;;;;;;;;5074589;28;20277;-60
2024/01/21 04:52:47;;;;;;;6.72;5.50;;;;;;;;;;5074412;28;20379;-60
2024/01/21 04:55:14;;;;;;;6.80;5.68;;;;;;;;;;5074447;28;20705;-60
2024/01/21 04:57:42;;;;;;;7.68;6.47;;;;;;;;;;5074466;28;20207;-60
2024/01/21 05:00:09;;;;;;;9.43;6.40;;;;;;;;;;5074441;28;20186;-60
2024/01/21 05:02:36;;;;;;;7.63;5.90;;;;;;;;;;5074439;28;20284;-60
2024/01/21 05:05:03;;;;;;;6.50;5.75;;;;;;;;;;5074365;28;20193;-60
2024/01/21 05:07:30;;;;;;;9.70;6.00;;;;;;;;;;5074299;28;20276;-60
2024/01/21 05:09:57;;;;;;;6.07;4.68;;;;;;;;;;5074127;28;20284;-60
2024/01/21 05:12:24;;;;;;;6.97;5.45;;;;;;;;;;5074308;28;20189;-60
2024/01/21 05:14:52;;;;;;;11.75;6.72;;;;;;;;;;5074128;28;20217;-60
2024/01/21 05:17:19;;;;;;;6.47;5.20;;;;;;;;;;5074094;28;20189;-60
2024/01/21 05:19:46;;;;;;;7.75;6.15;;;;;;;;;;5073847;28;20232;-60
2024/01/21 05:22:13;;;;;;;7.88;6.03;;;;;;;;;;5073968;28;20224;-60
2024/01/21 05:24:40;;;;;;;7.68;4.93;;;;;;;;;;5073758;28;20197;-60
2024/01/21 05:27:07;;;;;;;5.47;4.78;;;;;;;;;;5073939;28;20189;-60
2024/01/21 05:29:34;;;;;;;7.07;5.43;;;;;;;;;;5073920;28;20189;-60
2024/01/21 05:32:02;;;;;;;10.52;6.03;;;;;;;;;;5073898;28;20189;-60
2024/01/21 05:34:29;;;;;;;6.20;5.60;;;;;;;;;;5073530;28;20760;-60
2024/01/21 05:36:56;;;;;;;6.32;4.78;;;;;;;;;;5073624;28;20200;-60
2024/01/21 05:39:23;;;;;;;6.70;5.10;;;;;;;;;;5073520;28;20243;-60
2024/01/21 05:42:02;;;;;;;6.25;5.07;;;;;;;;;;5073679;28;20189;-60
2024/01/21 05:44:30;;;;;;;5.97;5.05;;;;;;;;;;5073582;28;20189;-60
2024/01/21 05:46:56;;;;;;;7.75;6.07;;;;;;;;;;5073517;28;20193;-60
2024/01/21 05:49:25;;;;;;;7.63;6.13;;;;;;;;;;5073410;28;20185;-60
2024/01/21 05:51:52;;;;;;;6.85;5.88;;;;;;;;;;5073575;28;20224;-60
2024/01/21 05:54:19;;;;;;;8.50;5.93;;;;;;;;;;5073482;28;20220;-60
2024/01/21 05:56:46;;;;;;;9.45;5.60;;;;;;;;;;5073431;28;20276;-60
2024/01/21 05:59:16;;;;;;;6.85;5.45;;;;;;;;;;5073439;28;20220;-60
2024/01/21 06:01:43;;;;;;;5.50;5.00;;;;;;;;;;5073355;28;20189;-60
2024/01/21 06:04:10;;;;;;;6.65;6.00;;;;;;;;;;5073127;28;20189;-60
2024/01/21 06:06:38;;;;;;;6.47;5.82;;;;;;;;;;5073374;28;20285;-60
2024/01/21 06:09:06;;;;;;;6.55;5.53;;;;;;;;;;5073212;28;20280;-60
2024/01/21 06:11:33;;;;;;;6.38;5.78;;;;;;;;;;5072686;28;20201;-60
2024/01/21 06:14:00;;;;;;;6.28;5.47;;;;;;;;;;5072963;28;20267;-60
2024/01/21 06:16:26;;;;;;;6.75;6.05;;;;;;;;;;5073057;28;20284;-60
2024/01/21 06:18:53;;;;;;;7.68;5.70;;;;;;;;;;5072968;28;20196;-60
2024/01/21 06:21:20;;;;;;;6.30;4.90;;;;;;;;;;5073034;28;20312;-60
2024/01/21 06:23:49;;;;;;;6.60;5.90;;;;;;;;;;5073122;28;20276;-60
2024/01/21 06:26:19;;;;;;;5.43;4.85;;;;;;;;;;5073305;28;20663;-60
2024/01/21 06:28:46;;;;;;;7.65;5.57;;;;;;;;;;5072955;28;20595;-60
2024/01/21 06:31:14;;;;;;;5.50;5.00;;;;;;;;;;5072789;28;20251;-61
2024/01/21 06:33:42;;;;;;;5.05;4.55;;;;;;;;;;5072969;28;20270;-60
2024/01/21 06:36:09;;;;;;;6.20;4.90;;;;;;;;;;5073061;28;20208;-60
2024/01/21 06:38:36;;;;;;;5.85;5.13;;;;;;;;;;5072962;28;20598;-60
2024/01/21 06:41:04;;;;;;;5.72;4.72;;;;;;;;;;5072832;28;20235;-60
2024/01/21 06:43:31;;;;;;;5.82;5.13;;;;;;;;;;5072736;28;20280;-60
2024/01/21 06:45:58;;;;;;;5.38;4.32;;;;;;;;;;5072713;28;20236;-60
2024/01/21 06:48:25;;;;;;;4.75;4.10;;;;;;;;;;5073133;28;20192;-60
2024/01/21 06:50:53;;;;;;;6.53;5.05;;;;;;;;;;5072727;28;20197;-60
2024/01/21 06:53:20;;;;;;;7.32;4.63;;;;;;;;;;5072673;28;20549;-60
2024/01/21 06:55:47;;;;;;;5.28;4.30;;;;;;;;;;5072754;28;20197;-60
2024/01/21 06:58:15;;;;;;;13.57;4.70;;;;;;;;;;5072698;28;20185;-60
2024/01/21 07:00:42;;;;;;;9.10;5.50;;;;;;;;;;5072853;28;20189;-60
2024/01/21 07:03:09;;;;;;;8.40;4.65;;;;;;;;;;5072753;28;20193;-60
2024/01/21 07:05:36;;;;;;;8.60;4.95;;;;;;;;;;5072683;28;20552;-60
2024/01/21 07:08:03;;;;;;;5.85;4.20;;;;;;;;;;5072573;28;20195;-60
2024/01/21 07:10:30;;;;;;;6.78;4.70;;;;;;;;;;5072522;28;20664;-60
2024/01/21 07:12:57;;;;;;;5.45;4.60;;;;;;;;;;5072426;28;20216;-60
2024/01/21 07:15:26;;;;;;;5.82;4.93;;;;;;;;;;5072620;28;20234;-60
2024/01/21 07:17:53;;;;;;;5.45;4.00;;;;;;;;;;5072606;28;20663;-60
2024/01/21 07:20:20;;;;;;;4.38;3.90;;;;;;;;;;5072428;28;20221;-60
2024/01/21 07:22:47;;;;;;;6.00;4.63;;;;;;;;;;5074424;28;20284;-60
2024/01/21 07:25:14;;;;;;;6.25;4.28;;;;;;;;;;5076100;28;20189;-60
2024/01/21 07:27:42;;;;;;;5.28;4.25;;;;;;;;;;5076025;28;20197;-60
2024/01/21 07:30:09;;;;;;;5.25;4.55;;;;;;;;;;5076212;28;20293;-60
2024/01/21 07:32:38;;;;;;;5.85;4.07;;;;;;;;;;5076091;28;20199;-60
2024/01/21 07:35:05;;;;;;;6.30;3.78;;;;;;;;;;5075944;28;20221;-60
2024/01/21 07:37:32;;;;;;;5.88;4.22;;;;;;;;;;5075989;28;20267;-60
2024/01/21 07:39:59;;;;;;;7.57;4.30;;;;;;;;;;5075821;28;20592;-60
2024/01/21 07:42:26;;;;;;;5.72;4.28;;;;;;;;;;5076028;28;20235;-61
2024/01/21 07:44:53;;;;;;;5.47;3.80;;;;;;;;;;5075942;28;20197;-60
2024/01/21 07:47:20;;;;;;;4.65;3.25;;;;;;;;;;5075841;28;20201;-60
2024/01/21 07:49:48;;;;;;;4.78;4.25;;;;;;;;;;5075694;28;20194;-60
2024/01/21 07:52:16;;;;;;;4.75;3.92;;;;;;;;;;5075635;28;20221;-60
2024/01/21 07:54:43;;;;;;;4.10;3.80;;;;;;;;;;5075459;28;20759;-60
2024/01/21 07:57:10;;;;;;;4.43;3.35;;;;;;;;;;5075772;28;20633;-60
2024/01/21 07:59:37;;;;;;;7.50;5.13;;;;;;;;;;5075644;28;20189;-60
2024/01/21 08:02:04;;;;;;;4.63;3.40;;;;;;;;;;5075553;28;20189;-60
2024/01/21 08:04:31;;;;;;;3.92;3.35;;;;;;;;;;5075396;28;20193;-60
2024/01/21 08:06:59;;;;;;;4.30;3.90;;;;;;;;;;5075229;28;20193;-60
2024/01/21 08:09:26;;;;;;;4.57;3.55;;;;;;;;;;5075586;28;20609;-60
2024/01/21 08:11:53;;;;;;;5.00;4.10;;;;;;;;;;5075371;28;20269;-60
2024/01/21 08:14:20;;;;;;;4.28;3.85;;;;;;;;;;5075218;28;20668;-60
2024/01/21 08:16:47;;;;;;;3.58;3.08;;;;;;;;;;5075225;28;20645;-60
2024/01/21 08:19:15;;;;;;;3.95;3.30;;;;;;;;;;5075169;28;20276;-60
2024/01/21 08:21:42;;;;;;;4.13;3.78;;;;;;;;;;5075117;28;20572;-60
2024/01/21 08:24:11;;;;;;;3.38;3.08;;;;;;;;;;5075179;28;20197;-60
2024/01/21 08:26:38;;;;;;;4.55;4.00;;;;;;;;;;5075104;28;20275;-60
2024/01/21 08:29:05;;;;;;;3.90;3.53;;;;;;;;;;5075042;28;20668;-60
2024/01/21 08:31:32;;;;;;;3.95;3.35;;;;;;;;;;5074852;28;20280;-60
2024/01/21 08:33:59;;;;;;;4.60;3.33;;;;;;;;;;5074187;28;20189;-60
2024/01/21 08:36:26;;;;;;;6.38;3.28;;;;;;;;;;5074996;28;20276;-60
2024/01/21 08:38:53;;;;;;;3.97;2.78;;;;;;;;;;5074936;28;20238;-61
2024/01/21 08:41:21;;;;;;;3.25;2.95;;;;;;;;;;5074818;28;20220;-61
2024/01/21 08:43:48;;;;;;;3.70;3.30;;;;;;;;;;5074741;28;20189;-60
2024/01/21 08:46:15;;;;;;;3.90;2.85;;;;;;;;;;5074639;28;20200;-61
2024/01/21 08:48:44;;;;;;;2.45;2.25;;;;;;;;;;5074486;28;20275;-60
2024/01/21 08:51:11;;;;;;;3.30;3.00;;;;;;;;;;5074715;28;20196;-61
2024/01/21 08:53:39;;;;;;;3.08;2.75;;;;;;;;;;5074657;28;20247;-61
2024/01/21 08:56:06;;;;;;;2.55;2.35;;;;;;;;;;5074433;28;20622;-61
2024/01/21 08:58:34;;;;;;;2.63;2.25;;;;;;;;;;5074383;28;20285;-59
2024/01/21 09:01:01;;;;;;;4.88;3.75;;;;;;;;;;5074229;28;20217;-61
2024/01/21 09:03:28;;;;;;;3.05;2.85;;;;;;;;;;5074213;28;20284;-61
2024/01/21 09:05:55;;;;;;;2.20;2.00;;;;;;;;;;5074328;28;20608;-61
2024/01/21 09:08:22;;;;;;;4.07;2.28;;;;;;;;;;5074507;28;20196;-60
2024/01/21 09:10:49;;;;;;;2.35;2.15;;;;;;;;;;5074453;28;20200;-60
2024/01/21 09:13:18;;;;;;;3.10;2.80;;;;;;;;;;5074032;28;20196;-61
2024/01/21 09:15:46;;;;;;;2.65;2.40;;;;;;;;;;5073872;28;20217;-61
2024/01/21 09:18:13;;;;;;;3.28;2.33;;;;;;;;;;5074203;28;20271;-61
2024/01/21 09:20:40;;;;;;;4.00;2.08;;;;;;;;;;5073828;28;20661;-61
2024/01/21 09:23:07;;;;;;;2.17;1.98;;;;;;;;;;5074148;28;20718;-61
2024/01/21 09:25:34;;;;;;;4.40;2.85;;;;;;;;;;5073853;28;20200;-60
2024/01/21 09:28:01;;;;;;;3.28;2.97;;;;;;;;;;5073716;28;20189;-61
2024/01/21 09:30:28;;;;;;;3.10;2.80;;;;;;;;;;5073681;28;20276;-61
2024/01/21 09:32:56;;;;;;;2.58;2.38;;;;;;;;;;5073793;28;20280;-61
2024/01/21 09:35:23;;;;;;;2.67;2.45;;;;;;;;;;5073578;28;20705;-61
2024/01/21 09:37:50;;;;;;;2.92;2.72;;;;;;;;;;5073608;28;20280;-61
2024/01/21 09:40:18;;;;;;;2.53;2.30;;;;;;;;;;5073570;28;20243;-60
2024/01/21 09:42:45;;;;;;;4.10;2.75;;;;;;;;;;5073513;28;20620;-61
2024/01/21 09:45:12;;;;;;;2.17;1.98;;;;;;;;;;5072878;28;20193;-61
2024/01/21 09:47:39;;;;;;;2.58;1.85;;;;;;;;;;5073479;28;20276;-61
2024/01/21 09:50:08;;;;;;;4.25;2.50;;;;;;;;;;5073464;28;20587;-61
2024/01/21 09:52:35;;;;;;;2.17;1.98;;;;;;;;;;5073333;28;20212;-61
2024/01/21 09:55:02;;;;;;;2.63;2.42;;;;;;;;;;5073155;28;20304;-61
2024/01/21 09:57:29;;;;;;;2.30;2.10;;;;;;;;;;5073163;28;20708;-61
2024/01/21 09:59:56;;;;;;;2.38;2.17;;;;;;;;;;5073625;28;20280;-61
2024/01/21 10:02:24;;;;;;;2.53;2.05;;;;;;;;;;5073273;28;20222;-61
2024/01/21 10:04:51;;;;;;;1.83;1.73;;;;;;;;;;5073215;28;20609;-61
2024/01/21 10:07:19;;;;;;;2.15;1.95;;;;;;;;;;5073251;28;20220;-61
2024/01/21 10:09:53;;;;;;;2.50;2.25;;;;;;;;;;5073096;28;20185;-61
2024/01/21 10:12:24;;;;;;;2.35;2.10;;;;;;;;;;5073335;28;20231;-61
2024/01/21 10:14:50;;;;;;;4.10;1.98;;;;;;;;;;5072945;28;20691;-61
2024/01/21 10:17:24;;;;;;;6.28;2.50;;;;;;;;;;5073159;28;20195;-61
2024/01/21 10:19:51;;;;;;;1.98;1.88;;;;;;;;;;5072887;28;20303;-61
2024/01/21 10:22:21;;;;;;;2.05;1.70;;;;;;;;;;5072902;28;20229;-61
2024/01/21 10:24:49;;;;;;;2.88;2.00;;;;;;;;;;5073160;28;20200;-61
2024/01/21 10:27:16;;;;;;;3.67;2.08;;;;;;;;;;5073053;28;20193;-61
2024/01/21 10:29:44;;;;;;;1.90;1.70;;;;;;;;;;5073043;28;20243;-61
2024/01/21 10:32:11;;;;;;;3.88;1.88;;;;;;;;;;5073090;28;20203;-61
2024/01/21 10:34:39;;;;;;;4.05;2.03;;;;;;;;;;5072759;28;20522;-61
2024/01/21 10:37:07;;;;;;;4.45;2.00;;;;;;;;;;5072675;28;20275;-60
2024/01/21 10:39:36;;;;;;;2.00;1.70;;;;;;;;;;5072724;28;20709;-61
2024/01/21 10:42:05;;;;;;;2.53;1.90;;;;;;;;;;5072915;28;20189;-61
2024/01/21 10:44:32;;;;;;;1.88;1.75;;;;;;;;;;5072794;28;20197;-61
2024/01/21 10:47:01;;;;;;;2.40;2.20;;;;;;;;;;5072727;28;20189;-61
2024/01/21 10:49:28;;;;;;;2.35;2.15;;;;;;;;;;5072647;28;20216;-61
2024/01/21 10:51:55;;;;;;;2.00;1.90;;;;;;;;;;5072872;28;20727;-61
2024/01/21 10:54:22;;;;;;;2.88;2.10;;;;;;;;;;5072741;28;20284;-61
2024/01/21 10:56:51;;;;;;;2.25;1.55;;;;;;;;;;5074808;28;20223;-61
2024/01/21 10:59:18;;;;;;;2.85;1.83;;;;;;;;;;5076650;28;20185;-61
2024/01/21 11:01:45;;;;;;;2.13;1.92;;;;;;;;;;5076658;28;20195;-61
2024/01/21 11:04:13;;;;;;;2.75;2.55;;;;;;;;;;5076728;28;20189;-61
2024/01/21 11:06:43;;;;;;;3.08;2.78;;;;;;;;;;5076667;28;20217;-61
2024/01/21 11:09:10;;;;;;;2.85;2.22;;;;;;;;;;5076784;28;20189;-61
2024/01/21 11:11:42;;;;;;;3.08;2.00;;;;;;;;;;5076493;28;20276;-61
2024/01/21 11:14:29;;;;;;;2.00;1.90;;;;;;;;;;5076459;28;20189;-61
2024/01/21 11:16:57;;;;;;;2.22;2.00;;;;;;;;;;5076444;28;20678;-61
2024/01/21 11:19:24;;;;;;;2.33;2.13;;;;;;;;;;5076412;28;20185;-61
2024/01/21 11:21:56;;;;;;;2.63;1.90;;;;;;;;;;5076319;28;20200;-61
2024/01/21 11:24:29;;;;;;;3.38;2.50;;;;;;;;;;5076252;28;20552;-61
2024/01/21 11:26:57;;;;;;;2.20;2.00;;;;;;;;;;5076197;28;20675;-61
2024/01/21 11:29:26;;;;;;;6.78;3.40;;;;;;;;;;5075984;28;20276;-61
2024/01/21 11:31:53;;;;;;;3.88;2.30;;;;;;;;;;5076071;28;20217;-61
2024/01/21 11:34:21;;;;;;;3.17;2.45;;;;;;;;;;5076025;28;20190;-61
2024/01/21 11:36:48;;;;;;;3.47;2.00;;;;;;;;;;5075924;28;20225;-61
2024/01/21 11:39:15;;;;;;;2.95;2.50;;;;;;;;;;5075900;28;20192;-61
2024/01/21 11:41:43;;;;;;;3.38;2.08;;;;;;;;;;5075752;28;20197;-61
2024/01/21 11:44:14;;;;;;;2.95;2.15;;;;;;;;;;5075940;28;20272;-61
2024/01/21 11:46:43;;;;;;;3.28;2.40;;;;;;;;;;5075857;28;20612;-61
2024/01/21 11:49:10;;;;;;;2.22;2.03;;;;;;;;;;5075768;28;20189;-61
2024/01/21 11:51:37;;;;;;;4.25;2.85;;;;;;;;;;5075731;28;20201;-61
2024/01/21 11:54:04;;;;;;;2.88;2.55;;;;;;;;;;5075607;28;20192;-61
2024/01/21 11:56:31;;;;;;;3.13;2.13;;;;;;;;;;5075688;28;20777;-61
2024/01/21 11:58:58;;;;;;;3.28;2.65;;;;;;;;;;5075723;28;20200;-61
2024/01/21 12:01:26;;;;;;;3.50;3.15;;;;;;;;;;5075607;28;20616;-61
2024/01/21 12:03:55;;;;;;;4.45;2.58;;;;;;;;;;5075747;28;20284;-61
2024/01/21 12:06:22;;;;;;;2.95;2.35;;;;;;;;;;5075406;28;20572;-61
2024/01/21 12:08:49;;;;;;;2.90;2.63;;;;;;;;;;5074331;28;20193;-61
2024/01/21 12:11:16;;;;;;;3.85;2.63;;;;;;;;;;5075503;28;20246;-61
2024/01/21 12:13:44;;;;;;;2.30;2.10;;;;;;;;;;5075221;28;20687;-61
2024/01/21 12:16:11;;;;;;;2.70;2.30;;;;;;;;;;5075354;28;20217;-61
2024/01/21 12:18:39;;;;;;;2.88;2.60;;;;;;;;;;5075217;28;20225;-61
2024/01/21 12:21:07;;;;;;;3.83;2.80;;;;;;;;;;5075094;28;20305;-61
2024/01/21 12:23:35;;;;;;;3.13;2.80;;;;;;;;;;5074966;28;20192;-61
2024/01/21 12:26:02;;;;;;;2.30;2.17;;;;;;;;;;5075224;28;20193;-61
2024/01/21 12:28:30;;;;;;;3.58;2.47;;;;;;;;;;5075163;28;20250;-61
2024/01/21 12:30:57;;;;;;;4.45;2.50;;;;;;;;;;5075289;28;20211;-61
2024/01/21 12:33:24;;;;;;;2.78;2.50;;;;;;;;;;5074927;28;20572;-61
2024/01/21 12:35:51;;;;;;;3.42;2.75;;;;;;;;;;5074660;28;20257;-61
2024/01/21 12:38:19;;;;;;;8.45;2.40;;;;;;;;;;5075120;28;20302;-61
2024/01/21 12:40:46;;;;;;;2.80;2.35;;;;;;;;;;5075026;28;20259;-61
2024/01/21 12:43:16;;;;;;;3.08;2.78;;;;;;;;;;5074869;28;20193;-61
2024/01/21 12:45:43;;;;;;;3.90;2.70;;;;;;;;;;5074715;28;20193;-61
2024/01/21 12:48:10;;;;;;;3.25;2.55;;;;;;;;;;5074607;28;20192;-61
2024/01/21 12:50:37;;;;;;;2.92;2.60;;;;;;;;;;5074534;28;20193;-61
2024/01/21 12:53:04;;;;;;;2.78;2.58;;;;;;;;;;5074466;28;20225;-61
2024/01/21 12:55:32;;;;;;;4.18;2.35;;;;;;;;;;5074493;28;20236;-61
2024/01/21 12:57:59;;;;;;;3.00;2.70;;;;;;;;;;5073416;28;20557;-61
2024/01/21 13:00:26;;;;;;;3.33;3.00;;;;;;;;;;5074279;28;20276;-61
2024/01/21 13:02:53;;;;;;;2.65;2.45;;;;;;;;;;5074329;28;20189;-61
2024/01/21 13:05:20;;;;;;;2.80;2.38;;;;;;;;;;5074394;28;20605;-61
2024/01/21 13:07:47;;;;;;;2.55;2.20;;;;;;;;;;5074143;28;20275;-61
2024/01/21 13:10:14;;;;;;;3.03;2.80;;;;;;;;;;5074054;28;20189;-61
2024/01/21 13:12:43;;;;;;;3.05;2.15;;;;;;;;;;5074057;28;20296;-61
2024/01/21 13:15:10;;;;;;;3.47;2.42;;;;;;;;;;5074087;28;20185;-61
2024/01/21 13:17:37;;;;;;;4.45;2.38;;;;;;;;;;5073831;28;20262;-61
2024/01/21 13:20:06;;;;;;;3.17;2.42;;;;;;;;;;5073898;28;20227;-61
2024/01/21 13:22:33;;;;;;;2.83;2.63;;;;;;;;;;5073815;28;20723;-61
2024/01/21 13:25:01;;;;;;;2.83;2.53;;;;;;;;;;5073925;28;20197;-61
2024/01/21 13:27:37;;;;;;;3.88;3.10;;;;;;;;;;5073841;28;20193;-61
2024/01/21 13:32:51;;;;;;;2.60;2.33;;;;;;;;;;5073913;28;20192;-61
2024/01/21 13:35:18;;;;;;;3.13;2.50;;;;;;;;;;5073620;28;20663;-61
2024/01/21 13:37:46;;;;;;;2.72;2.22;;;;;;;;;;5073649;28;20688;-61
2024/01/21 13:40:13;;;;;;;3.45;3.15;;;;;;;;;;5073511;28;20188;-61
2024/01/21 13:42:40;;;;;;;6.00;4.15;;;;;;;;;;5073384;28;20272;-61
2024/01/21 13:45:09;;;;;;;4.38;3.42;;;;;;;;;;5073789;28;20272;-61
2024/01/21 13:47:36;;;;;;;3.75;3.05;;;;;;;;;;5073543;28;20204;-61
2024/01/21 13:50:04;;;;;;;4.50;2.70;;;;;;;;;;5073337;28;20288;-61
2024/01/21 13:52:31;;;;;;;2.65;2.42;;;;;;;;;;5073423;28;20548;-61
2024/01/21 13:54:58;;;;;;;4.72;3.67;;;;;;;;;;5073111;28;20195;-61
2024/01/21 13:57:25;;;;;;;3.00;2.80;;;;;;;;;;5073363;28;20311;-61
2024/01/21 13:59:52;;;;;;;4.47;3.30;;;;;;;;;;5073408;28;20291;-61
2024/01/21 14:02:20;;;;;;;5.30;2.97;;;;;;;;;;5073394;28;20189;-61
2024/01/21 14:04:47;;;;;;;3.35;3.00;;;;;;;;;;5073185;28;20192;-61
2024/01/21 14:07:14;;;;;;;4.60;3.20;;;;;;;;;;5073057;28;20278;-61
2024/01/21 14:09:42;;;;;;;3.80;3.45;;;;;;;;;;5073344;28;20200;-61
2024/01/21 14:12:09;;;;;;;3.38;2.83;;;;;;;;;;5073251;28;20193;-61
2024/01/21 14:14:36;;;;;;;6.60;3.42;;;;;;;;;;5073015;28;20225;-61
2024/01/21 14:17:04;;;;;;;5.43;3.20;;;;;;;;;;5073077;28;20244;-61
2024/01/21 14:19:32;;;;;;;5.93;3.83;;;;;;;;;;5072827;28;20276;-61
2024/01/21 14:21:59;;;;;;;3.50;2.70;;;;;;;;;;5072968;28;20279;-61
2024/01/21 14:24:27;;;;;;;3.30;3.00;;;;;;;;;;5073173;28;20231;-61
2024/01/21 14:26:54;;;;;;;4.43;3.78;;;;;;;;;;5073053;28;20283;-61
2024/01/21 14:29:22;;;;;;;3.30;2.97;;;;;;;;;;5072978;28;20292;-61
2024/01/21 14:31:49;;;;;;;3.80;3.10;;;;;;;;;;5072438;28;20196;-61
2024/01/21 14:34:16;;;;;;;3.53;3.22;;;;;;;;;;5072847;28;20630;-61
2024/01/21 14:36:45;;;;;;;4.43;2.97;;;;;;;;;;5072584;28;20220;-61
2024/01/21 14:39:12;;;;;;;3.25;3.00;;;;;;;;;;5072999;28;20193;-61
2024/01/21 14:41:39;;;;;;;6.32;3.45;;;;;;;;;;5072881;28;20196;-61
2024/01/21 14:44:06;;;;;;;4.05;3.65;;;;;;;;;;5072836;28;20189;-61
2024/01/21 14:46:33;;;;;;;4.07;3.70;;;;;;;;;;5072764;28;20197;-61